sensor_id;sensor_type;location;lat;lon;timestamp;P1;durP1;ratioP1;P2;durP2;ratioP2
30681;SDS011;17439;48.092;11.842;2023-07-16T00:02:03;8.00;;;3.50;;
30681;SDS011;17439;48.092;11.842;2023-07-16T00:04:30;4.72;;;2.70;;
30681;SDS011;17439;48.092;11.842;2023-07-16T00:07:01;11.13;;;3.10;;
30681;SDS011;17439;48.092;11.842;2023-07-16T00:09:27;4.03;;;3.15;;
30681;SDS011;17439;48.092;11.842;2023-07-16T00:11:55;7.82;;;3.30;;
30681;SDS011;17439;48.092;11.842;2023-07-16T00:16:49;6.50;;;3.00;;
30681;SDS011;17439;48.092;11.842;2023-07-16T00:19:16;6.68;;;3.22;;
30681;SDS011;17439;48.092;11.842;2023-07-16T00:21:42;4.90;;;2.90;;
30681;SDS011;17439;48.092;11.842;2023-07-16T00:24:09;4.28;;;3.00;;
30681;SDS011;17439;48.092;11.842;2023-07-16T00:26:36;4.47;;;3.03;;
30681;SDS011;17439;48.092;11.842;2023-07-16T00:29:02;4.80;;;2.70;;
30681;SDS011;17439;48.092;11.842;2023-07-16T00:31:29;6.50;;;3.15;;
30681;SDS011;17439;48.092;11.842;2023-07-16T00:33:56;4.82;;;3.00;;
30681;SDS011;17439;48.092;11.842;2023-07-16T00:36:24;4.50;;;2.63;;
30681;SDS011;17439;48.092;11.842;2023-07-16T00:38:51;7.57;;;2.50;;
30681;SDS011;17439;48.092;11.842;2023-07-16T00:41:18;7.13;;;2.80;;
30681;SDS011;17439;48.092;11.842;2023-07-16T00:43:44;5.25;;;3.00;;
30681;SDS011;17439;48.092;11.842;2023-07-16T00:46:11;5.10;;;2.60;;
30681;SDS011;17439;48.092;11.842;2023-07-16T00:48:43;4.45;;;2.85;;
30681;SDS011;17439;48.092;11.842;2023-07-16T00:51:10;6.63;;;2.55;;
30681;SDS011;17439;48.092;11.842;2023-07-16T00:53:36;7.47;;;2.75;;
30681;SDS011;17439;48.092;11.842;2023-07-16T00:56:03;3.92;;;2.58;;
30681;SDS011;17439;48.092;11.842;2023-07-16T00:58:30;8.05;;;3.20;;
30681;SDS011;17439;48.092;11.842;2023-07-16T01:00:57;3.67;;;2.50;;
30681;SDS011;17439;48.092;11.842;2023-07-16T01:03:23;6.68;;;2.63;;
30681;SDS011;17439;48.092;11.842;2023-07-16T01:08:42;5.25;;;2.92;;
30681;SDS011;17439;48.092;11.842;2023-07-16T01:11:16;5.28;;;2.38;;
30681;SDS011;17439;48.092;11.842;2023-07-16T01:13:43;4.75;;;2.75;;
30681;SDS011;17439;48.092;11.842;2023-07-16T01:18:50;3.25;;;2.72;;
30681;SDS011;17439;48.092;11.842;2023-07-16T01:21:21;3.87;;;2.77;;
30681;SDS011;17439;48.092;11.842;2023-07-16T01:29:21;4.65;;;3.10;;
30681;SDS011;17439;48.092;11.842;2023-07-16T01:31:56;4.10;;;2.40;;
30681;SDS011;17439;48.092;11.842;2023-07-16T01:34:28;6.07;;;3.08;;
30681;SDS011;17439;48.092;11.842;2023-07-16T01:36:57;5.38;;;3.35;;
30681;SDS011;17439;48.092;11.842;2023-07-16T01:39:24;10.70;;;2.78;;
30681;SDS011;17439;48.092;11.842;2023-07-16T01:41:51;6.65;;;3.30;;
30681;SDS011;17439;48.092;11.842;2023-07-16T01:44:18;2.55;;;2.05;;
30681;SDS011;17439;48.092;11.842;2023-07-16T01:46:46;4.70;;;3.20;;
30681;SDS011;17439;48.092;11.842;2023-07-16T01:49:20;5.25;;;2.55;;
30681;SDS011;17439;48.092;11.842;2023-07-16T01:51:46;4.60;;;2.78;;
30681;SDS011;17439;48.092;11.842;2023-07-16T01:54:13;7.95;;;3.30;;
30681;SDS011;17439;48.092;11.842;2023-07-16T01:56:40;6.63;;;3.13;;
30681;SDS011;17439;48.092;11.842;2023-07-16T01:59:06;7.20;;;2.78;;
30681;SDS011;17439;48.092;11.842;2023-07-16T02:01:33;5.93;;;3.17;;
30681;SDS011;17439;48.092;11.842;2023-07-16T02:04:00;9.63;;;3.22;;
30681;SDS011;17439;48.092;11.842;2023-07-16T02:06:27;7.45;;;3.67;;
30681;SDS011;17439;48.092;11.842;2023-07-16T02:08:53;4.07;;;2.85;;
30681;SDS011;17439;48.092;11.842;2023-07-16T02:11:20;5.88;;;3.28;;
30681;SDS011;17439;48.092;11.842;2023-07-16T02:13:47;4.90;;;3.10;;
30681;SDS011;17439;48.092;11.842;2023-07-16T02:16:13;4.40;;;3.10;;
30681;SDS011;17439;48.092;11.842;2023-07-16T02:18:41;4.20;;;2.80;;
30681;SDS011;17439;48.092;11.842;2023-07-16T02:21:08;7.50;;;3.17;;
30681;SDS011;17439;48.092;11.842;2023-07-16T02:23:34;6.38;;;3.00;;
30681;SDS011;17439;48.092;11.842;2023-07-16T02:26:01;5.95;;;3.28;;
30681;SDS011;17439;48.092;11.842;2023-07-16T02:28:28;4.68;;;3.10;;
30681;SDS011;17439;48.092;11.842;2023-07-16T02:30:55;5.43;;;2.88;;
30681;SDS011;17439;48.092;11.842;2023-07-16T02:33:21;6.05;;;3.20;;
30681;SDS011;17439;48.092;11.842;2023-07-16T02:35:49;12.32;;;4.45;;
30681;SDS011;17439;48.092;11.842;2023-07-16T02:38:15;8.07;;;3.35;;
30681;SDS011;17439;48.092;11.842;2023-07-16T02:40:45;5.05;;;3.10;;
30681;SDS011;17439;48.092;11.842;2023-07-16T02:43:12;4.05;;;2.67;;
30681;SDS011;17439;48.092;11.842;2023-07-16T02:45:39;5.03;;;3.13;;
30681;SDS011;17439;48.092;11.842;2023-07-16T02:48:06;5.72;;;3.13;;
30681;SDS011;17439;48.092;11.842;2023-07-16T02:50:34;5.88;;;2.80;;
30681;SDS011;17439;48.092;11.842;2023-07-16T02:53:03;5.80;;;3.10;;
30681;SDS011;17439;48.092;11.842;2023-07-16T02:55:30;5.97;;;3.05;;
30681;SDS011;17439;48.092;11.842;2023-07-16T02:57:57;7.93;;;3.43;;
30681;SDS011;17439;48.092;11.842;2023-07-16T03:00:26;4.30;;;2.78;;
30681;SDS011;17439;48.092;11.842;2023-07-16T03:02:53;6.78;;;3.42;;
30681;SDS011;17439;48.092;11.842;2023-07-16T03:05:19;3.95;;;2.78;;
30681;SDS011;17439;48.092;11.842;2023-07-16T03:07:46;4.75;;;3.30;;
30681;SDS011;17439;48.092;11.842;2023-07-16T03:10:15;6.70;;;2.50;;
30681;SDS011;17439;48.092;11.842;2023-07-16T03:12:42;5.50;;;2.80;;
30681;SDS011;17439;48.092;11.842;2023-07-16T03:15:09;5.35;;;2.67;;
30681;SDS011;17439;48.092;11.842;2023-07-16T03:17:36;4.30;;;2.60;;
30681;SDS011;17439;48.092;11.842;2023-07-16T03:20:03;5.63;;;3.35;;
30681;SDS011;17439;48.092;11.842;2023-07-16T03:22:30;5.07;;;3.10;;
30681;SDS011;17439;48.092;11.842;2023-07-16T03:24:58;5.43;;;2.53;;
30681;SDS011;17439;48.092;11.842;2023-07-16T03:27:24;3.72;;;2.85;;
30681;SDS011;17439;48.092;11.842;2023-07-16T03:29:57;3.92;;;2.47;;
30681;SDS011;17439;48.092;11.842;2023-07-16T03:32:24;4.20;;;2.65;;
30681;SDS011;17439;48.092;11.842;2023-07-16T03:35:03;5.82;;;2.95;;
30681;SDS011;17439;48.092;11.842;2023-07-16T03:37:30;6.43;;;3.25;;
30681;SDS011;17439;48.092;11.842;2023-07-16T03:40:11;6.65;;;3.45;;
30681;SDS011;17439;48.092;11.842;2023-07-16T03:42:39;4.05;;;2.67;;
30681;SDS011;17439;48.092;11.842;2023-07-16T03:45:06;7.13;;;3.75;;
30681;SDS011;17439;48.092;11.842;2023-07-16T03:47:33;5.07;;;2.83;;
30681;SDS011;17439;48.092;11.842;2023-07-16T03:50:01;5.90;;;4.43;;
30681;SDS011;17439;48.092;11.842;2023-07-16T03:52:28;4.50;;;3.15;;
30681;SDS011;17439;48.092;11.842;2023-07-16T03:54:55;4.43;;;2.90;;
30681;SDS011;17439;48.092;11.842;2023-07-16T03:57:22;8.45;;;3.40;;
30681;SDS011;17439;48.092;11.842;2023-07-16T03:59:48;3.75;;;3.00;;
30681;SDS011;17439;48.092;11.842;2023-07-16T04:02:15;7.05;;;3.83;;
30681;SDS011;17439;48.092;11.842;2023-07-16T04:04:42;7.88;;;4.30;;
30681;SDS011;17439;48.092;11.842;2023-07-16T04:07:09;7.05;;;3.75;;
30681;SDS011;17439;48.092;11.842;2023-07-16T04:09:39;4.28;;;1.95;;
30681;SDS011;17439;48.092;11.842;2023-07-16T04:12:06;5.80;;;2.20;;
30681;SDS011;17439;48.092;11.842;2023-07-16T04:14:33;2.78;;;2.15;;
30681;SDS011;17439;48.092;11.842;2023-07-16T04:17:00;1.58;;;1.38;;
30681;SDS011;17439;48.092;11.842;2023-07-16T04:19:28;2.80;;;1.45;;
30681;SDS011;17439;48.092;11.842;2023-07-16T04:21:54;2.33;;;1.80;;
30681;SDS011;17439;48.092;11.842;2023-07-16T04:24:21;1.63;;;1.45;;
30681;SDS011;17439;48.092;11.842;2023-07-16T04:26:48;5.82;;;1.50;;
30681;SDS011;17439;48.092;11.842;2023-07-16T04:29:15;4.15;;;1.65;;
30681;SDS011;17439;48.092;11.842;2023-07-16T04:31:41;5.28;;;1.42;;
30681;SDS011;17439;48.092;11.842;2023-07-16T04:34:08;3.67;;;1.83;;
30681;SDS011;17439;48.092;11.842;2023-07-16T04:36:34;3.35;;;1.50;;
30681;SDS011;17439;48.092;11.842;2023-07-16T04:39:01;4.75;;;2.60;;
30681;SDS011;17439;48.092;11.842;2023-07-16T04:41:28;11.47;;;1.33;;
30681;SDS011;17439;48.092;11.842;2023-07-16T04:43:55;4.07;;;1.75;;
30681;SDS011;17439;48.092;11.842;2023-07-16T04:46:22;2.25;;;1.52;;
30681;SDS011;17439;48.092;11.842;2023-07-16T04:48:49;2.55;;;1.77;;
30681;SDS011;17439;48.092;11.842;2023-07-16T04:51:15;7.13;;;1.60;;
30681;SDS011;17439;48.092;11.842;2023-07-16T04:53:42;4.53;;;2.00;;
30681;SDS011;17439;48.092;11.842;2023-07-16T04:56:12;6.60;;;1.60;;
30681;SDS011;17439;48.092;11.842;2023-07-16T04:58:40;4.70;;;1.52;;
30681;SDS011;17439;48.092;11.842;2023-07-16T05:01:08;1.75;;;1.35;;
30681;SDS011;17439;48.092;11.842;2023-07-16T05:03:35;3.92;;;1.55;;
30681;SDS011;17439;48.092;11.842;2023-07-16T05:06:02;2.75;;;1.50;;
30681;SDS011;17439;48.092;11.842;2023-07-16T05:08:29;4.78;;;1.65;;
30681;SDS011;17439;48.092;11.842;2023-07-16T05:10:56;1.98;;;1.27;;
30681;SDS011;17439;48.092;11.842;2023-07-16T05:13:23;5.32;;;1.70;;
30681;SDS011;17439;48.092;11.842;2023-07-16T05:15:49;3.10;;;1.75;;
30681;SDS011;17439;48.092;11.842;2023-07-16T05:18:16;2.83;;;1.13;;
30681;SDS011;17439;48.092;11.842;2023-07-16T05:20:43;5.55;;;1.35;;
30681;SDS011;17439;48.092;11.842;2023-07-16T05:23:13;2.60;;;1.88;;
30681;SDS011;17439;48.092;11.842;2023-07-16T05:25:49;2.67;;;1.10;;
30681;SDS011;17439;48.092;11.842;2023-07-16T05:28:18;2.17;;;1.30;;
30681;SDS011;17439;48.092;11.842;2023-07-16T05:30:45;2.28;;;1.23;;
30681;SDS011;17439;48.092;11.842;2023-07-16T05:33:12;1.75;;;1.42;;
30681;SDS011;17439;48.092;11.842;2023-07-16T05:35:39;3.97;;;1.42;;
30681;SDS011;17439;48.092;11.842;2023-07-16T05:38:06;2.15;;;1.27;;
30681;SDS011;17439;48.092;11.842;2023-07-16T05:40:33;2.08;;;1.45;;
30681;SDS011;17439;48.092;11.842;2023-07-16T05:42:59;3.35;;;1.30;;
30681;SDS011;17439;48.092;11.842;2023-07-16T05:45:26;1.75;;;1.00;;
30681;SDS011;17439;48.092;11.842;2023-07-16T05:47:53;2.05;;;1.25;;
30681;SDS011;17439;48.092;11.842;2023-07-16T05:50:19;2.55;;;1.30;;
30681;SDS011;17439;48.092;11.842;2023-07-16T05:52:46;1.60;;;0.93;;
30681;SDS011;17439;48.092;11.842;2023-07-16T05:55:13;2.47;;;1.50;;
30681;SDS011;17439;48.092;11.842;2023-07-16T05:57:40;2.00;;;1.20;;
30681;SDS011;17439;48.092;11.842;2023-07-16T06:00:06;2.65;;;1.48;;
30681;SDS011;17439;48.092;11.842;2023-07-16T06:02:36;2.03;;;1.48;;
30681;SDS011;17439;48.092;11.842;2023-07-16T06:05:03;1.65;;;1.10;;
30681;SDS011;17439;48.092;11.842;2023-07-16T06:07:36;1.58;;;1.00;;
30681;SDS011;17439;48.092;11.842;2023-07-16T06:10:03;2.45;;;1.23;;
30681;SDS011;17439;48.092;11.842;2023-07-16T06:12:30;4.97;;;2.13;;
30681;SDS011;17439;48.092;11.842;2023-07-16T06:14:57;1.35;;;1.02;;
30681;SDS011;17439;48.092;11.842;2023-07-16T06:17:23;1.85;;;1.60;;
30681;SDS011;17439;48.092;11.842;2023-07-16T06:19:50;2.42;;;1.85;;
30681;SDS011;17439;48.092;11.842;2023-07-16T06:22:17;4.30;;;1.85;;
30681;SDS011;17439;48.092;11.842;2023-07-16T06:24:44;2.90;;;1.10;;
30681;SDS011;17439;48.092;11.842;2023-07-16T06:27:10;1.35;;;1.00;;
30681;SDS011;17439;48.092;11.842;2023-07-16T06:29:37;4.28;;;1.70;;
30681;SDS011;17439;48.092;11.842;2023-07-16T06:32:04;1.83;;;1.27;;
30681;SDS011;17439;48.092;11.842;2023-07-16T06:34:31;1.17;;;1.00;;
30681;SDS011;17439;48.092;11.842;2023-07-16T06:36:58;1.88;;;0.90;;
30681;SDS011;17439;48.092;11.842;2023-07-16T06:39:25;2.80;;;0.95;;
30681;SDS011;17439;48.092;11.842;2023-07-16T06:41:51;2.38;;;1.10;;
30681;SDS011;17439;48.092;11.842;2023-07-16T06:44:20;1.80;;;1.17;;
30681;SDS011;17439;48.092;11.842;2023-07-16T06:46:48;2.65;;;0.90;;
30681;SDS011;17439;48.092;11.842;2023-07-16T06:49:15;0.83;;;0.83;;
30681;SDS011;17439;48.092;11.842;2023-07-16T06:51:42;1.20;;;1.00;;
30681;SDS011;17439;48.092;11.842;2023-07-16T06:54:09;2.22;;;1.02;;
30681;SDS011;17439;48.092;11.842;2023-07-16T06:56:35;4.15;;;0.90;;
30681;SDS011;17439;48.092;11.842;2023-07-16T06:59:02;1.65;;;0.80;;
30681;SDS011;17439;48.092;11.842;2023-07-16T07:01:29;1.40;;;0.90;;
30681;SDS011;17439;48.092;11.842;2023-07-16T07:03:56;1.20;;;0.70;;
30681;SDS011;17439;48.092;11.842;2023-07-16T07:06:22;1.17;;;1.08;;
30681;SDS011;17439;48.092;11.842;2023-07-16T07:08:51;1.00;;;0.60;;
30681;SDS011;17439;48.092;11.842;2023-07-16T07:11:18;1.67;;;0.63;;
30681;SDS011;17439;48.092;11.842;2023-07-16T07:13:45;1.40;;;0.80;;
30681;SDS011;17439;48.092;11.842;2023-07-16T07:16:12;0.82;;;0.73;;
30681;SDS011;17439;48.092;11.842;2023-07-16T07:18:39;0.97;;;0.87;;
30681;SDS011;17439;48.092;11.842;2023-07-16T07:21:06;0.68;;;0.57;;
30681;SDS011;17439;48.092;11.842;2023-07-16T07:23:33;2.15;;;0.70;;
30681;SDS011;17439;48.092;11.842;2023-07-16T07:26:00;0.90;;;0.70;;
30681;SDS011;17439;48.092;11.842;2023-07-16T07:28:26;2.67;;;1.00;;
30681;SDS011;17439;48.092;11.842;2023-07-16T07:30:54;1.45;;;1.00;;
30681;SDS011;17439;48.092;11.842;2023-07-16T07:33:21;1.27;;;0.80;;
30681;SDS011;17439;48.092;11.842;2023-07-16T07:35:48;0.90;;;0.80;;
30681;SDS011;17439;48.092;11.842;2023-07-16T07:38:15;1.13;;;0.93;;
30681;SDS011;17439;48.092;11.842;2023-07-16T07:40:44;0.90;;;0.90;;
30681;SDS011;17439;48.092;11.842;2023-07-16T07:43:11;2.13;;;1.05;;
30681;SDS011;17439;48.092;11.842;2023-07-16T07:45:37;1.73;;;0.90;;
30681;SDS011;17439;48.092;11.842;2023-07-16T07:48:04;1.13;;;1.02;;
30681;SDS011;17439;48.092;11.842;2023-07-16T07:50:31;1.10;;;0.93;;
30681;SDS011;17439;48.092;11.842;2023-07-16T07:52:58;1.63;;;1.20;;
30681;SDS011;17439;48.092;11.842;2023-07-16T07:55:25;1.23;;;0.90;;
30681;SDS011;17439;48.092;11.842;2023-07-16T07:57:51;1.20;;;1.02;;
30681;SDS011;17439;48.092;11.842;2023-07-16T08:00:18;7.13;;;1.80;;
30681;SDS011;17439;48.092;11.842;2023-07-16T08:02:46;1.25;;;1.15;;
30681;SDS011;17439;48.092;11.842;2023-07-16T08:05:13;1.00;;;0.90;;
30681;SDS011;17439;48.092;11.842;2023-07-16T08:07:39;1.35;;;0.95;;
30681;SDS011;17439;48.092;11.842;2023-07-16T08:10:06;1.05;;;0.73;;
30681;SDS011;17439;48.092;11.842;2023-07-16T08:12:33;0.97;;;0.87;;
30681;SDS011;17439;48.092;11.842;2023-07-16T08:15:00;1.25;;;1.00;;
30681;SDS011;17439;48.092;11.842;2023-07-16T08:17:27;1.90;;;1.00;;
30681;SDS011;17439;48.092;11.842;2023-07-16T08:19:54;1.15;;;1.00;;
30681;SDS011;17439;48.092;11.842;2023-07-16T08:22:21;1.02;;;0.93;;
30681;SDS011;17439;48.092;11.842;2023-07-16T08:24:48;3.20;;;1.02;;
30681;SDS011;17439;48.092;11.842;2023-07-16T08:27:15;1.27;;;1.02;;
30681;SDS011;17439;48.092;11.842;2023-07-16T08:29:42;1.05;;;0.73;;
30681;SDS011;17439;48.092;11.842;2023-07-16T08:32:09;0.77;;;0.70;;
30681;SDS011;17439;48.092;11.842;2023-07-16T08:34:35;1.88;;;1.17;;
30681;SDS011;17439;48.092;11.842;2023-07-16T08:37:02;1.23;;;1.05;;
30681;SDS011;17439;48.092;11.842;2023-07-16T08:39:30;1.70;;;1.10;;
30681;SDS011;17439;48.092;11.842;2023-07-16T08:41:57;1.30;;;1.17;;
30681;SDS011;17439;48.092;11.842;2023-07-16T08:44:24;2.35;;;1.20;;
30681;SDS011;17439;48.092;11.842;2023-07-16T08:46:51;3.47;;;1.40;;
30681;SDS011;17439;48.092;11.842;2023-07-16T08:49:18;1.30;;;1.05;;
30681;SDS011;17439;48.092;11.842;2023-07-16T08:51:48;1.95;;;1.20;;
30681;SDS011;17439;48.092;11.842;2023-07-16T08:54:15;1.75;;;1.52;;
30681;SDS011;17439;48.092;11.842;2023-07-16T08:56:45;1.60;;;1.25;;
30681;SDS011;17439;48.092;11.842;2023-07-16T08:59:16;1.60;;;1.50;;
30681;SDS011;17439;48.092;11.842;2023-07-16T09:01:44;1.60;;;1.42;;
30681;SDS011;17439;48.092;11.842;2023-07-16T09:04:14;2.45;;;1.50;;
30681;SDS011;17439;48.092;11.842;2023-07-16T09:06:42;1.63;;;1.17;;
30681;SDS011;17439;48.092;11.842;2023-07-16T09:09:11;1.37;;;1.00;;
30681;SDS011;17439;48.092;11.842;2023-07-16T09:11:46;1.33;;;1.23;;
30681;SDS011;17439;48.092;11.842;2023-07-16T09:14:19;1.35;;;1.25;;
30681;SDS011;17439;48.092;11.842;2023-07-16T09:16:50;2.05;;;1.40;;
30681;SDS011;17439;48.092;11.842;2023-07-16T09:19:18;1.42;;;1.17;;
30681;SDS011;17439;48.092;11.842;2023-07-16T09:21:45;1.88;;;1.65;;
30681;SDS011;17439;48.092;11.842;2023-07-16T09:24:13;3.17;;;1.70;;
30681;SDS011;17439;48.092;11.842;2023-07-16T09:26:49;1.85;;;1.25;;
30681;SDS011;17439;48.092;11.842;2023-07-16T09:29:17;1.20;;;1.10;;
30681;SDS011;17439;48.092;11.842;2023-07-16T09:34:40;4.07;;;1.50;;
30681;SDS011;17439;48.092;11.842;2023-07-16T09:37:07;1.98;;;1.38;;
30681;SDS011;17439;48.092;11.842;2023-07-16T09:39:34;3.10;;;1.33;;
30681;SDS011;17439;48.092;11.842;2023-07-16T09:42:02;1.35;;;1.20;;
30681;SDS011;17439;48.092;11.842;2023-07-16T09:44:29;1.57;;;1.17;;
30681;SDS011;17439;48.092;11.842;2023-07-16T09:46:56;3.75;;;1.60;;
30681;SDS011;17439;48.092;11.842;2023-07-16T09:49:23;1.42;;;1.08;;
30681;SDS011;17439;48.092;11.842;2023-07-16T09:51:50;1.48;;;1.33;;
30681;SDS011;17439;48.092;11.842;2023-07-16T09:54:23;1.60;;;1.50;;
30681;SDS011;17439;48.092;11.842;2023-07-16T09:56:54;2.05;;;1.50;;
30681;SDS011;17439;48.092;11.842;2023-07-16T09:59:25;2.83;;;1.52;;
30681;SDS011;17439;48.092;11.842;2023-07-16T10:01:55;1.98;;;1.40;;
30681;SDS011;17439;48.092;11.842;2023-07-16T10:06:50;2.03;;;1.25;;
30681;SDS011;17439;48.092;11.842;2023-07-16T10:09:39;2.40;;;1.48;;
30681;SDS011;17439;48.092;11.842;2023-07-16T10:14:47;1.42;;;1.00;;
30681;SDS011;17439;48.092;11.842;2023-07-16T10:17:22;1.30;;;0.80;;
30681;SDS011;17439;48.092;11.842;2023-07-16T10:22:40;1.20;;;1.10;;
30681;SDS011;17439;48.092;11.842;2023-07-16T10:25:09;1.17;;;1.08;;
30681;SDS011;17439;48.092;11.842;2023-07-16T10:27:45;2.05;;;1.38;;
30681;SDS011;17439;48.092;11.842;2023-07-16T10:30:13;1.38;;;1.17;;
30681;SDS011;17439;48.092;11.842;2023-07-16T10:32:41;3.08;;;2.15;;
30681;SDS011;17439;48.092;11.842;2023-07-16T10:35:08;1.70;;;1.40;;
30681;SDS011;17439;48.092;11.842;2023-07-16T10:37:36;1.48;;;1.00;;
30681;SDS011;17439;48.092;11.842;2023-07-16T10:40:03;2.08;;;1.45;;
30681;SDS011;17439;48.092;11.842;2023-07-16T10:45:03;3.00;;;0.95;;
30681;SDS011;17439;48.092;11.842;2023-07-16T10:47:34;1.52;;;1.10;;
30681;SDS011;17439;48.092;11.842;2023-07-16T10:50:04;1.25;;;1.10;;
30681;SDS011;17439;48.092;11.842;2023-07-16T10:52:36;2.47;;;1.27;;
30681;SDS011;17439;48.092;11.842;2023-07-16T10:55:03;1.73;;;1.10;;
30681;SDS011;17439;48.092;11.842;2023-07-16T10:57:30;1.35;;;1.25;;
30681;SDS011;17439;48.092;11.842;2023-07-16T10:59:58;2.05;;;1.20;;
30681;SDS011;17439;48.092;11.842;2023-07-16T11:02:25;1.20;;;1.10;;
30681;SDS011;17439;48.092;11.842;2023-07-16T11:07:20;1.35;;;1.25;;
30681;SDS011;17439;48.092;11.842;2023-07-16T11:09:51;5.80;;;1.50;;
30681;SDS011;17439;48.092;11.842;2023-07-16T11:12:23;2.67;;;2.03;;
30681;SDS011;17439;48.092;11.842;2023-07-16T11:14:51;1.38;;;1.25;;
30681;SDS011;17439;48.092;11.842;2023-07-16T11:17:19;2.03;;;1.20;;
30681;SDS011;17439;48.092;11.842;2023-07-16T11:19:47;1.42;;;1.30;;
30681;SDS011;17439;48.092;11.842;2023-07-16T11:22:16;1.40;;;1.30;;
30681;SDS011;17439;48.092;11.842;2023-07-16T11:27:15;2.33;;;1.83;;
30681;SDS011;17439;48.092;11.842;2023-07-16T11:29:46;1.60;;;1.30;;
30681;SDS011;17439;48.092;11.842;2023-07-16T11:32:14;1.13;;;1.02;;
30681;SDS011;17439;48.092;11.842;2023-07-16T11:35:02;1.42;;;1.30;;
30681;SDS011;17439;48.092;11.842;2023-07-16T11:37:30;1.77;;;1.17;;
30681;SDS011;17439;48.092;11.842;2023-07-16T11:40:00;2.55;;;1.33;;
30681;SDS011;17439;48.092;11.842;2023-07-16T11:42:29;2.75;;;1.60;;
30681;SDS011;17439;48.092;11.842;2023-07-16T11:44:57;1.95;;;1.55;;
30681;SDS011;17439;48.092;11.842;2023-07-16T11:47:24;1.30;;;0.98;;
30681;SDS011;17439;48.092;11.842;2023-07-16T11:49:52;1.73;;;1.20;;
30681;SDS011;17439;48.092;11.842;2023-07-16T11:52:23;1.20;;;1.10;;
30681;SDS011;17439;48.092;11.842;2023-07-16T11:54:52;2.88;;;1.50;;
30681;SDS011;17439;48.092;11.842;2023-07-16T11:59:46;1.17;;;1.08;;
30681;SDS011;17439;48.092;11.842;2023-07-16T12:02:13;1.10;;;1.00;;
30681;SDS011;17439;48.092;11.842;2023-07-16T12:04:39;2.03;;;1.20;;
30681;SDS011;17439;48.092;11.842;2023-07-16T12:07:07;3.85;;;1.00;;
30681;SDS011;17439;48.092;11.842;2023-07-16T12:09:33;1.73;;;1.40;;
30681;SDS011;17439;48.092;11.842;2023-07-16T12:12:01;1.38;;;1.08;;
30681;SDS011;17439;48.092;11.842;2023-07-16T12:14:28;1.38;;;1.20;;
30681;SDS011;17439;48.092;11.842;2023-07-16T12:16:55;2.85;;;1.65;;
30681;SDS011;17439;48.092;11.842;2023-07-16T12:19:21;1.93;;;1.40;;
30681;SDS011;17439;48.092;11.842;2023-07-16T12:21:48;1.77;;;1.47;;
30681;SDS011;17439;48.092;11.842;2023-07-16T12:24:17;1.63;;;1.20;;
30681;SDS011;17439;48.092;11.842;2023-07-16T12:26:44;1.40;;;1.30;;
30681;SDS011;17439;48.092;11.842;2023-07-16T12:29:11;1.90;;;1.20;;
30681;SDS011;17439;48.092;11.842;2023-07-16T12:31:37;3.25;;;1.27;;
30681;SDS011;17439;48.092;11.842;2023-07-16T12:34:04;1.40;;;1.30;;
30681;SDS011;17439;48.092;11.842;2023-07-16T12:36:31;3.63;;;1.40;;
30681;SDS011;17439;48.092;11.842;2023-07-16T12:38:57;1.52;;;1.02;;
30681;SDS011;17439;48.092;11.842;2023-07-16T12:41:24;1.85;;;1.30;;
30681;SDS011;17439;48.092;11.842;2023-07-16T12:43:51;1.58;;;1.15;;
30681;SDS011;17439;48.092;11.842;2023-07-16T12:46:17;1.00;;;0.90;;
30681;SDS011;17439;48.092;11.842;2023-07-16T12:48:45;1.77;;;1.40;;
30681;SDS011;17439;48.092;11.842;2023-07-16T12:51:11;1.65;;;1.42;;
30681;SDS011;17439;48.092;11.842;2023-07-16T12:53:38;1.70;;;1.40;;
30681;SDS011;17439;48.092;11.842;2023-07-16T12:56:05;1.38;;;1.27;;
30681;SDS011;17439;48.092;11.842;2023-07-16T12:58:31;1.30;;;1.17;;
30681;SDS011;17439;48.092;11.842;2023-07-16T13:00:58;2.17;;;1.52;;
30681;SDS011;17439;48.092;11.842;2023-07-16T13:03:25;1.73;;;1.30;;
30681;SDS011;17439;48.092;11.842;2023-07-16T13:05:51;1.35;;;1.20;;
30681;SDS011;17439;48.092;11.842;2023-07-16T13:08:18;1.75;;;1.48;;
30681;SDS011;17439;48.092;11.842;2023-07-16T13:10:45;2.25;;;1.35;;
30681;SDS011;17439;48.092;11.842;2023-07-16T13:13:12;1.23;;;1.10;;
30681;SDS011;17439;48.092;11.842;2023-07-16T13:15:38;3.28;;;1.60;;
30681;SDS011;17439;48.092;11.842;2023-07-16T13:18:05;1.20;;;1.10;;
30681;SDS011;17439;48.092;11.842;2023-07-16T13:20:32;1.23;;;1.00;;
30681;SDS011;17439;48.092;11.842;2023-07-16T13:22:58;3.63;;;1.80;;
30681;SDS011;17439;48.092;11.842;2023-07-16T13:25:25;1.42;;;1.17;;
30681;SDS011;17439;48.092;11.842;2023-07-16T13:27:52;1.57;;;1.27;;
30681;SDS011;17439;48.092;11.842;2023-07-16T13:30:19;1.90;;;1.15;;
30681;SDS011;17439;48.092;11.842;2023-07-16T13:32:45;3.15;;;1.30;;
30681;SDS011;17439;48.092;11.842;2023-07-16T13:35:12;1.90;;;1.53;;
30681;SDS011;17439;48.092;11.842;2023-07-16T13:37:39;2.20;;;1.80;;
30681;SDS011;17439;48.092;11.842;2023-07-16T13:40:05;2.40;;;1.52;;
30681;SDS011;17439;48.092;11.842;2023-07-16T13:42:33;2.28;;;1.95;;
30681;SDS011;17439;48.092;11.842;2023-07-16T13:44:59;1.37;;;1.27;;
30681;SDS011;17439;48.092;11.842;2023-07-16T13:47:26;1.52;;;1.23;;
30681;SDS011;17439;48.092;11.842;2023-07-16T13:49:55;1.10;;;1.00;;
30681;SDS011;17439;48.092;11.842;2023-07-16T13:52:22;1.93;;;1.47;;
30681;SDS011;17439;48.092;11.842;2023-07-16T13:54:49;1.50;;;1.15;;
30681;SDS011;17439;48.092;11.842;2023-07-16T13:57:16;3.20;;;1.15;;
30681;SDS011;17439;48.092;11.842;2023-07-16T13:59:42;2.00;;;1.60;;
30681;SDS011;17439;48.092;11.842;2023-07-16T14:02:09;1.58;;;1.48;;
30681;SDS011;17439;48.092;11.842;2023-07-16T14:04:36;3.60;;;1.95;;
30681;SDS011;17439;48.092;11.842;2023-07-16T14:07:02;1.17;;;1.05;;
30681;SDS011;17439;48.092;11.842;2023-07-16T14:09:29;2.57;;;1.63;;
30681;SDS011;17439;48.092;11.842;2023-07-16T14:11:56;1.95;;;1.42;;
30681;SDS011;17439;48.092;11.842;2023-07-16T14:14:23;1.80;;;1.30;;
30681;SDS011;17439;48.092;11.842;2023-07-16T14:16:50;2.17;;;1.38;;
30681;SDS011;17439;48.092;11.842;2023-07-16T14:19:16;1.80;;;1.35;;
30681;SDS011;17439;48.092;11.842;2023-07-16T14:21:43;2.60;;;1.70;;
30681;SDS011;17439;48.092;11.842;2023-07-16T14:24:10;1.88;;;1.30;;
30681;SDS011;17439;48.092;11.842;2023-07-16T14:26:37;2.10;;;1.40;;
30681;SDS011;17439;48.092;11.842;2023-07-16T14:29:03;3.60;;;2.22;;
30681;SDS011;17439;48.092;11.842;2023-07-16T14:31:30;1.60;;;1.50;;
30681;SDS011;17439;48.092;11.842;2023-07-16T14:33:57;2.20;;;1.45;;
30681;SDS011;17439;48.092;11.842;2023-07-16T14:36:23;2.72;;;1.60;;
30681;SDS011;17439;48.092;11.842;2023-07-16T14:38:50;1.55;;;1.40;;
30681;SDS011;17439;48.092;11.842;2023-07-16T14:41:17;3.72;;;1.40;;
30681;SDS011;17439;48.092;11.842;2023-07-16T14:43:44;3.03;;;1.88;;
30681;SDS011;17439;48.092;11.842;2023-07-16T14:46:11;3.67;;;1.50;;
30681;SDS011;17439;48.092;11.842;2023-07-16T14:48:38;2.67;;;1.47;;
30681;SDS011;17439;48.092;11.842;2023-07-16T14:51:05;1.50;;;1.20;;
30681;SDS011;17439;48.092;11.842;2023-07-16T14:53:32;2.85;;;1.63;;
30681;SDS011;17439;48.092;11.842;2023-07-16T14:55:58;2.35;;;1.75;;
30681;SDS011;17439;48.092;11.842;2023-07-16T14:58:25;3.95;;;1.80;;
30681;SDS011;17439;48.092;11.842;2023-07-16T15:00:52;2.38;;;1.77;;
30681;SDS011;17439;48.092;11.842;2023-07-16T15:03:19;8.48;;;2.08;;
30681;SDS011;17439;48.092;11.842;2023-07-16T15:05:45;2.30;;;1.63;;
30681;SDS011;17439;48.092;11.842;2023-07-16T15:08:12;3.33;;;1.92;;
30681;SDS011;17439;48.092;11.842;2023-07-16T15:10:39;3.17;;;1.73;;